createdAt,value
2022-10-29T00:02:29.648Z,17.40
2022-10-29T00:05:32.932Z,17.30
2022-10-29T00:08:38.902Z,17.30
2022-10-29T00:11:41.904Z,17.20
2022-10-29T00:14:44.882Z,17.20
2022-10-29T00:17:47.950Z,17.10
2022-10-29T00:20:50.950Z,17.10
2022-10-29T00:23:55.260Z,17.10
2022-10-29T00:26:58.234Z,17.00
2022-10-29T00:30:01.199Z,17.00
2022-10-29T00:33:04.193Z,16.90
2022-10-29T00:36:09.212Z,16.80
2022-10-29T00:39:16.467Z,16.80
2022-10-29T00:42:19.513Z,16.80
2022-10-29T00:45:22.523Z,16.70
2022-10-29T00:48:26.893Z,16.70
2022-10-29T00:51:31.888Z,16.60
2022-10-29T00:54:39.755Z,16.50
2022-10-29T00:57:48.667Z,16.60
2022-10-29T01:00:51.900Z,16.50
2022-10-29T01:03:55.684Z,16.50
2022-10-29T01:06:59.811Z,16.50
2022-10-29T01:10:04.430Z,16.40
2022-10-29T01:13:20.809Z,16.40
2022-10-29T01:16:32.145Z,16.30
2022-10-29T01:20:11.794Z,16.30
2022-10-29T01:23:51.044Z,16.30
2022-10-29T01:27:32.085Z,16.20
2022-10-29T01:31:10.976Z,16.10
2022-10-29T01:34:23.362Z,16.10
2022-10-29T01:37:33.159Z,16.00
2022-10-29T01:40:41.196Z,16.10
2022-10-29T01:43:48.702Z,16.00
2022-10-29T01:46:54.955Z,16.00
2022-10-29T01:50:03.274Z,15.90
2022-10-29T01:53:07.586Z,15.80
2022-10-29T01:56:10.582Z,15.80
2022-10-29T01:59:23.301Z,15.80
2022-10-29T02:02:50.282Z,15.80
2022-10-29T02:06:05.523Z,15.80
2022-10-29T02:09:16.485Z,15.80
2022-10-29T02:12:25.494Z,15.80
2022-10-29T02:15:32.952Z,15.70
2022-10-29T02:18:42.062Z,15.70
2022-10-29T02:21:46.390Z,15.70
2022-10-29T02:24:49.402Z,15.70
2022-10-29T02:27:52.527Z,15.60
2022-10-29T02:30:55.604Z,15.60
2022-10-29T02:33:58.589Z,15.60
2022-10-29T02:37:02.921Z,15.60
2022-10-29T02:40:06.866Z,15.50
2022-10-29T02:43:09.955Z,15.50
2022-10-29T02:46:14.657Z,15.40
2022-10-29T02:49:17.643Z,15.40
2022-10-29T02:52:21.945Z,15.40
2022-10-29T02:55:24.969Z,15.40
2022-10-29T02:58:27.942Z,15.30
2022-10-29T03:01:31.089Z,15.30
2022-10-29T03:04:34.155Z,15.30
2022-10-29T03:07:38.913Z,15.30
2022-10-29T03:10:41.864Z,15.30
2022-10-29T03:13:44.846Z,15.30
2022-10-29T03:16:47.825Z,15.40
2022-10-29T03:19:50.894Z,15.40
2022-10-29T03:22:55.186Z,15.40
2022-10-29T03:25:59.944Z,15.50
2022-10-29T03:29:03.065Z,15.50
2022-10-29T03:32:06.748Z,15.50
2022-10-29T03:35:10.917Z,15.50
2022-10-29T03:38:15.250Z,15.60
2022-10-29T03:41:18.235Z,15.60
2022-10-29T03:44:21.210Z,15.60
2022-10-29T03:47:24.278Z,15.60
2022-10-29T03:50:27.301Z,15.70
2022-10-29T03:53:31.573Z,15.70
2022-10-29T03:56:34.587Z,15.70
2022-10-29T03:59:37.561Z,15.70
2022-10-29T04:02:40.840Z,15.60
2022-10-29T04:05:43.714Z,15.60
2022-10-29T04:08:48.021Z,15.60
2022-10-29T04:11:51.005Z,15.60
2022-10-29T04:14:53.976Z,15.60
2022-10-29T04:17:57.291Z,15.50
2022-10-29T04:28:41.722Z,15.50
2022-10-29T04:31:13.544Z,15.50
2022-10-29T04:34:16.659Z,15.50
2022-10-29T04:37:19.642Z,15.50
2022-10-29T04:40:24.815Z,15.50
2022-10-29T04:43:28.514Z,15.50
2022-10-29T04:46:31.511Z,15.40
2022-10-29T04:49:34.457Z,15.40
2022-10-29T04:52:37.405Z,15.40
2022-10-29T04:55:42.136Z,15.20
2022-10-29T04:58:45.090Z,15.20
2022-10-29T05:01:48.096Z,15.20
2022-10-29T05:04:51.027Z,15.30
2022-10-29T05:07:58.994Z,15.30
2022-10-29T05:11:05.164Z,15.40
2022-10-29T05:14:08.112Z,15.40
2022-10-29T05:17:11.078Z,15.30
2022-10-29T05:20:14.016Z,15.40
2022-10-29T05:23:16.973Z,15.40
2022-10-29T05:26:21.267Z,15.50
2022-10-29T05:29:24.362Z,15.50
2022-10-29T05:32:29.664Z,15.50
2022-10-29T05:35:32.639Z,15.60
2022-10-29T05:38:35.616Z,15.60
2022-10-29T05:41:39.914Z,15.60
2022-10-29T05:44:42.864Z,15.60
2022-10-29T05:47:46.180Z,15.60
2022-10-29T05:50:49.262Z,15.60
2022-10-29T05:53:52.214Z,15.60
2022-10-29T05:56:56.546Z,15.60
2022-10-29T05:59:59.778Z,15.50
2022-10-29T06:03:02.904Z,15.50
2022-10-29T06:06:06.156Z,15.40
2022-10-29T06:09:09.398Z,15.50
2022-10-29T06:12:13.724Z,15.50
2022-10-29T06:15:16.838Z,15.50
2022-10-29T06:18:19.791Z,15.40
2022-10-29T06:21:22.741Z,15.40
2022-10-29T06:24:25.669Z,15.40
2022-10-29T06:27:29.961Z,15.30
2022-10-29T06:30:34.478Z,15.40
2022-10-29T06:33:37.429Z,15.40
2022-10-29T06:36:40.413Z,15.40
2022-10-29T06:39:43.353Z,15.30
2022-10-29T06:42:47.776Z,15.20
2022-10-29T06:45:51.358Z,15.20
2022-10-29T06:48:54.374Z,15.20
2022-10-29T06:51:57.318Z,15.10
2022-10-29T06:55:02.246Z,15.10
2022-10-29T06:58:08.044Z,15.10
2022-10-29T07:01:11.070Z,15.10
2022-10-29T07:04:14.046Z,15.10
2022-10-29T07:07:17.909Z,15.10
2022-10-29T07:10:20.891Z,15.10
2022-10-29T07:13:25.236Z,15.10
2022-10-29T07:16:28.213Z,15.10
2022-10-29T07:19:31.152Z,15.10
2022-10-29T07:22:34.979Z,15.20
2022-10-29T07:25:39.562Z,15.30
2022-10-29T07:28:43.898Z,15.30
2022-10-29T07:31:46.882Z,15.40
2022-10-29T07:34:49.824Z,15.40
2022-10-29T07:37:52.946Z,15.50
2022-10-29T07:40:56.364Z,15.60
2022-10-29T07:44:00.818Z,15.50
2022-10-29T07:47:03.782Z,15.50
2022-10-29T07:50:07.574Z,15.50
2022-10-29T07:53:11.346Z,15.50
2022-10-29T07:56:14.305Z,15.50
2022-10-29T07:59:19.207Z,15.50
2022-10-29T08:02:22.161Z,15.50
2022-10-29T08:05:26.053Z,15.50
2022-10-29T08:08:29.113Z,15.60
2022-10-29T08:11:33.118Z,15.60
2022-10-29T08:14:37.500Z,15.60
2022-10-29T08:17:40.461Z,15.60
2022-10-29T08:20:43.787Z,15.60
2022-10-29T08:23:46.951Z,15.60
2022-10-29T08:26:51.193Z,15.70
2022-10-29T08:29:55.553Z,15.70
2022-10-29T08:33:00.671Z,15.80
2022-10-29T08:36:04.032Z,15.80
2022-10-29T08:39:06.986Z,15.80
2022-10-29T08:42:24.538Z,15.90
2022-10-29T08:45:36.769Z,15.90
2022-10-29T08:48:46.535Z,16.00
2022-10-29T08:51:55.391Z,16.00
2022-10-29T08:55:07.440Z,16.00
2022-10-29T08:58:20.280Z,16.00
2022-10-29T09:01:25.274Z,16.10
2022-10-29T09:04:33.685Z,16.10
2022-10-29T09:07:48.889Z,16.00
2022-10-29T09:10:55.741Z,16.10
2022-10-29T09:14:18.171Z,16.10
2022-10-29T09:17:31.898Z,16.00
2022-10-29T09:20:44.210Z,16.10
2022-10-29T09:23:58.387Z,16.20
2022-10-29T09:27:08.137Z,16.30
2022-10-29T09:30:17.067Z,16.30
2022-10-29T09:33:23.216Z,16.40
2022-10-29T09:36:26.606Z,16.60
2022-10-29T09:39:34.521Z,16.80
2022-10-29T09:42:40.684Z,17.00
2022-10-29T09:45:48.751Z,17.10
2022-10-29T09:49:00.409Z,17.30
2022-10-29T09:52:07.685Z,17.40
2022-10-29T09:55:19.353Z,17.60
2022-10-29T09:58:24.879Z,17.60
2022-10-29T10:01:27.871Z,17.40
2022-10-29T10:04:37.232Z,17.50
2022-10-29T10:07:40.369Z,17.40
2022-10-29T10:10:53.872Z,17.40
2022-10-29T10:14:00.512Z,17.30
2022-10-29T10:17:04.117Z,17.30
2022-10-29T10:20:36.892Z,17.30
2022-10-29T10:23:45.394Z,17.40
2022-10-29T10:26:48.359Z,17.50
2022-10-29T10:30:12.241Z,17.50
2022-10-29T10:33:26.175Z,17.80
2022-10-29T10:36:32.375Z,17.60
2022-10-29T10:39:38.754Z,17.70
2022-10-29T10:42:47.444Z,17.80
2022-10-29T10:45:56.035Z,17.60
2022-10-29T10:49:01.746Z,17.60
2022-10-29T10:52:14.294Z,17.60
2022-10-29T10:55:24.122Z,17.60
2022-10-29T10:58:32.245Z,17.70
2022-10-29T11:01:39.351Z,17.60
2022-10-29T11:04:44.316Z,17.40
2022-10-29T11:07:58.520Z,17.40
2022-10-29T11:11:06.756Z,17.60
2022-10-29T11:14:16.585Z,17.70
2022-10-29T11:17:27.967Z,17.70
2022-10-29T11:20:36.489Z,17.70
2022-10-29T11:23:49.484Z,17.90
2022-10-29T11:26:56.546Z,18.10
2022-10-29T11:30:05.606Z,18.20
2022-10-29T11:33:17.385Z,18.30
2022-10-29T11:36:23.073Z,18.40
2022-10-29T11:39:32.621Z,18.40
2022-10-29T11:42:36.207Z,18.10
2022-10-29T11:45:50.528Z,18.20
2022-10-29T11:49:04.628Z,18.20
2022-10-29T11:52:12.436Z,18.20
2022-10-29T11:55:29.550Z,18.30
2022-10-29T11:58:40.804Z,18.20
2022-10-29T12:01:51.720Z,18.30
2022-10-29T12:05:01.313Z,18.40
2022-10-29T12:08:17.301Z,18.40
2022-10-29T12:11:26.056Z,18.40
2022-10-29T12:14:36.349Z,18.50
2022-10-29T12:17:46.489Z,18.50
2022-10-29T12:20:58.724Z,18.70
2022-10-29T12:24:15.603Z,18.60
2022-10-29T12:27:24.342Z,18.50
2022-10-29T12:30:32.560Z,18.70
2022-10-29T12:33:40.681Z,18.60
2022-10-29T12:36:53.393Z,18.70
2022-10-29T12:40:03.972Z,18.70
2022-10-29T12:43:15.986Z,18.60
2022-10-29T12:46:26.234Z,18.70
2022-10-29T12:49:43.145Z,18.80
2022-10-29T12:52:51.506Z,18.90
2022-10-29T12:55:54.922Z,19.00
2022-10-29T12:59:19.884Z,19.10
2022-10-29T13:02:30.013Z,19.20
2022-10-29T13:05:41.224Z,19.30
2022-10-29T13:08:56.692Z,19.50
2022-10-29T13:12:01.329Z,19.60
2022-10-29T13:15:15.331Z,19.60
2022-10-29T13:18:24.590Z,19.70
2022-10-29T13:21:59.092Z,19.60
2022-10-29T13:25:51.189Z,19.40
2022-10-29T13:28:54.602Z,19.30
2022-10-29T13:32:04.881Z,19.30
2022-10-29T13:35:39.708Z,19.20
2022-10-29T13:38:57.933Z,19.20
2022-10-29T13:42:13.045Z,19.10
2022-10-29T13:45:16.275Z,19.10
2022-10-29T13:48:27.431Z,19.10
2022-10-29T13:51:38.035Z,19.10
2022-10-29T13:54:44.574Z,19.10
2022-10-29T13:57:59.897Z,19.00
2022-10-29T14:01:08.974Z,18.90
2022-10-29T14:04:24.864Z,18.90
2022-10-29T14:07:43.722Z,18.90
2022-10-29T14:10:49.334Z,19.00
2022-10-29T14:13:54.257Z,19.00
2022-10-29T14:17:16.018Z,19.10
2022-10-29T14:20:26.004Z,19.10
2022-10-29T14:23:30.412Z,19.00
2022-10-29T14:26:36.007Z,19.10
2022-10-29T14:29:39.415Z,19.10
2022-10-29T14:32:45.248Z,19.10
2022-10-29T14:35:49.828Z,19.10
2022-10-29T14:38:56.451Z,19.20
2022-10-29T14:41:59.484Z,19.20
2022-10-29T14:45:05.732Z,19.20
2022-10-29T14:48:11.181Z,19.20
2022-10-29T14:51:21.848Z,19.20
2022-10-29T14:54:27.322Z,19.10
2022-10-29T14:57:35.380Z,19.00
2022-10-29T15:00:39.478Z,19.00
2022-10-29T15:03:42.888Z,19.00
2022-10-29T15:06:47.238Z,18.90
2022-10-29T15:09:51.013Z,18.70
2022-10-29T15:12:55.284Z,18.70
2022-10-29T15:16:01.942Z,18.60
2022-10-29T15:19:05.127Z,18.60
2022-10-29T15:22:15.469Z,18.50
2022-10-29T15:25:24.724Z,18.50
2022-10-29T15:28:30.429Z,18.50
2022-10-29T15:31:43.590Z,18.50
2022-10-29T15:34:51.748Z,18.50
2022-10-29T15:37:56.663Z,18.50
2022-10-29T15:41:30.929Z,18.30
2022-10-29T15:44:39.012Z,18.30
2022-10-29T15:47:43.492Z,18.30
2022-10-29T15:50:47.240Z,18.30
2022-10-29T15:53:51.591Z,18.20
2022-10-29T15:56:54.591Z,18.20
2022-10-29T15:59:57.593Z,18.20
2022-10-29T16:03:08.239Z,18.10
2022-10-29T16:06:12.735Z,18.00
2022-10-29T16:09:21.208Z,18.00
2022-10-29T16:12:24.514Z,18.00
2022-10-29T16:18:35.337Z,17.90
2022-10-29T16:21:38.506Z,17.90
2022-10-29T16:24:42.813Z,17.80
2022-10-29T16:27:45.886Z,17.70
2022-10-29T16:30:53.854Z,17.70
2022-10-29T16:33:59.586Z,17.60
2022-10-29T16:37:02.567Z,17.60
2022-10-29T16:40:08.300Z,17.60
2022-10-29T16:43:11.409Z,17.60
2022-10-29T16:46:15.205Z,17.50
2022-10-29T16:49:18.201Z,17.60
2022-10-29T16:52:24.199Z,17.60
2022-10-29T16:55:31.233Z,17.50
2022-10-29T16:58:34.245Z,17.50
2022-10-29T17:01:37.189Z,17.60
2022-10-29T17:04:40.255Z,17.50
2022-10-29T17:07:43.445Z,17.40
2022-10-29T17:10:47.744Z,17.30
2022-10-29T17:13:50.702Z,17.20
2022-10-29T17:16:53.644Z,17.00
2022-10-29T17:19:56.591Z,16.90
2022-10-29T17:22:59.512Z,17.00
2022-10-29T17:26:03.845Z,17.00
2022-10-29T17:29:06.806Z,17.00
2022-10-29T17:32:10.056Z,17.00
2022-10-29T17:35:12.983Z,16.90
2022-10-29T17:38:15.959Z,17.00
2022-10-29T17:41:20.293Z,17.00
2022-10-29T17:44:23.225Z,16.90
2022-10-29T17:47:26.229Z,17.00
2022-10-29T17:50:29.224Z,16.90
2022-10-29T17:53:32.492Z,16.90
2022-10-29T17:56:36.824Z,16.80
2022-10-29T17:59:39.769Z,16.80
2022-10-29T18:02:42.945Z,16.70
2022-10-29T18:05:45.958Z,16.80
2022-10-29T18:08:48.963Z,16.80
2022-10-29T18:11:53.264Z,16.80
2022-10-29T18:14:56.188Z,16.80
2022-10-29T18:18:00.294Z,16.80
2022-10-29T18:21:03.344Z,16.80
2022-10-29T18:24:07.234Z,16.80
2022-10-29T18:27:11.526Z,16.80
2022-10-29T18:30:14.616Z,16.80
2022-10-29T18:33:17.592Z,16.80
2022-10-29T18:36:20.743Z,16.80
2022-10-29T18:39:23.786Z,16.80
2022-10-29T18:42:29.808Z,16.80
2022-10-29T18:45:32.999Z,16.70
2022-10-29T18:48:38.566Z,16.70
2022-10-29T18:51:41.589Z,16.70
2022-10-29T18:54:44.617Z,16.70
2022-10-29T18:57:50.192Z,16.70
2022-10-29T19:00:53.265Z,16.70
2022-10-29T19:03:58.451Z,16.70
2022-10-29T19:07:01.418Z,16.70
2022-10-29T19:10:04.442Z,16.70
2022-10-29T19:13:09.574Z,16.60
2022-10-29T19:16:15.202Z,16.60
2022-10-29T19:19:21.252Z,16.60
2022-10-29T19:22:27.126Z,16.60
2022-10-29T19:25:32.837Z,16.60
2022-10-29T19:28:40.718Z,16.60
2022-10-29T19:31:45.867Z,16.60
2022-10-29T19:34:48.804Z,16.60
2022-10-29T19:37:51.783Z,16.60
2022-10-29T19:40:56.018Z,16.60
2022-10-29T19:44:02.139Z,16.60
2022-10-29T19:47:05.227Z,16.60
2022-10-29T19:50:09.636Z,16.60
2022-10-29T19:53:13.354Z,16.60
2022-10-29T19:56:17.744Z,16.50
2022-10-29T19:59:22.060Z,16.50
2022-10-29T20:02:25.123Z,16.50
2022-10-29T20:05:28.114Z,16.40
2022-10-29T20:08:31.176Z,16.40
2022-10-29T20:11:34.228Z,16.30
2022-10-29T20:14:38.582Z,16.30
2022-10-29T20:17:41.527Z,16.30
2022-10-29T20:20:44.517Z,16.30
2022-10-29T20:23:47.628Z,16.20
2022-10-29T20:26:50.565Z,16.10
2022-10-29T20:29:54.852Z,16.10
2022-10-29T20:32:58.148Z,16.10
2022-10-29T20:36:01.385Z,16.10
2022-10-29T20:39:04.880Z,16.10
2022-10-29T20:42:07.812Z,16.10
2022-10-29T20:45:12.246Z,16.10
2022-10-29T20:48:15.235Z,16.00
2022-10-29T20:51:18.310Z,16.00
2022-10-29T20:54:21.326Z,16.10
2022-10-29T20:57:24.417Z,16.00
2022-10-29T21:00:28.701Z,16.00
2022-10-29T21:03:33.743Z,16.00
2022-10-29T21:06:36.688Z,16.00
2022-10-29T21:09:39.633Z,16.00
2022-10-29T21:12:42.607Z,16.00
2022-10-29T21:15:46.860Z,15.90
2022-10-29T21:18:51.996Z,15.90
2022-10-29T21:21:54.927Z,15.90
2022-10-29T21:24:57.877Z,15.90
2022-10-29T21:28:01.031Z,15.90
2022-10-29T21:31:05.745Z,15.80
2022-10-29T21:34:08.688Z,15.80
2022-10-29T21:37:11.611Z,15.70
2022-10-29T21:40:14.933Z,15.60
2022-10-29T21:43:19.269Z,15.60
2022-10-29T21:46:23.540Z,15.60
2022-10-29T21:49:26.528Z,15.60
2022-10-29T21:52:29.452Z,15.50
2022-10-29T21:55:32.907Z,15.50
2022-10-29T21:58:35.976Z,15.50
2022-10-29T22:01:40.333Z,15.60
2022-10-29T22:04:43.377Z,15.60
2022-10-29T22:07:46.626Z,15.60
2022-10-29T22:10:49.562Z,15.60
2022-10-29T22:13:53.421Z,15.60
2022-10-29T22:16:58.676Z,15.50
2022-10-29T22:20:01.668Z,15.50
2022-10-29T22:23:04.704Z,15.50
2022-10-29T22:26:07.706Z,15.50
2022-10-29T22:29:10.721Z,15.50
2022-10-29T22:32:14.990Z,15.40
2022-10-29T22:35:17.933Z,15.40
2022-10-29T22:38:20.910Z,15.40
2022-10-29T22:41:23.924Z,15.40
2022-10-29T22:44:26.876Z,15.50
2022-10-29T22:47:31.137Z,15.50
2022-10-29T22:50:34.098Z,15.50
2022-10-29T22:53:37.110Z,15.50
2022-10-29T22:56:40.718Z,15.50
2022-10-29T22:59:43.923Z,15.50
2022-10-29T23:02:48.304Z,15.50
2022-10-29T23:05:57.497Z,15.50
2022-10-29T23:09:01.653Z,15.50
2022-10-29T23:12:05.073Z,15.50
2022-10-29T23:15:08.713Z,15.50
2022-10-29T23:18:12.971Z,15.50
2022-10-29T23:21:15.947Z,15.50
2022-10-29T23:24:18.892Z,15.50
2022-10-29T23:27:21.864Z,15.40
2022-10-29T23:30:24.924Z,15.50
2022-10-29T23:33:29.668Z,15.50
2022-10-29T23:36:33.685Z,15.50
2022-10-29T23:39:36.722Z,15.50
2022-10-29T23:42:39.673Z,15.50
2022-10-29T23:45:43.777Z,15.50
2022-10-29T23:48:48.083Z,15.40
2022-10-29T23:51:51.044Z,15.40
2022-10-29T23:54:54.043Z,15.40
2022-10-29T23:57:57.050Z,15.40
